createdAt,value
2023-03-11T00:00:49.548Z,1.70
2023-03-11T00:03:20.904Z,1.70
2023-03-11T00:05:49.915Z,1.70
2023-03-11T00:08:20.548Z,1.70
2023-03-11T00:10:52.519Z,1.60
2023-03-11T00:13:21.195Z,1.60
2023-03-11T00:15:51.515Z,1.60
2023-03-11T00:18:21.159Z,1.60
2023-03-11T00:20:49.772Z,1.60
2023-03-11T00:23:18.019Z,1.50
2023-03-11T00:25:48.064Z,1.50
2023-03-11T00:28:17.445Z,1.40
2023-03-11T00:30:47.211Z,1.40
2023-03-11T00:33:16.853Z,1.30
2023-03-11T00:35:46.510Z,1.30
2023-03-11T00:38:16.612Z,1.20
2023-03-11T00:40:46.978Z,1.20
2023-03-11T00:43:15.572Z,1.20
2023-03-11T00:45:44.263Z,1.20
2023-03-11T00:48:14.007Z,1.10
2023-03-11T00:50:42.434Z,1.10
2023-03-11T00:53:12.759Z,1.10
2023-03-11T00:55:41.670Z,1.00
2023-03-11T00:58:13.819Z,1.00
2023-03-11T01:00:51.759Z,1.00
2023-03-11T01:03:20.054Z,1.00
2023-03-11T01:05:49.106Z,1.00
2023-03-11T01:08:18.822Z,1.00
2023-03-11T01:10:47.079Z,0.90
2023-03-11T01:13:15.414Z,1.00
2023-03-11T01:15:43.731Z,1.00
2023-03-11T01:18:12.121Z,0.90
2023-03-11T01:20:40.670Z,0.90
2023-03-11T01:23:09.583Z,0.90
2023-03-11T01:25:40.308Z,0.90
2023-03-11T01:28:09.388Z,0.90
2023-03-11T01:30:40.140Z,0.90
2023-03-11T01:33:10.311Z,0.90
2023-03-11T01:35:42.703Z,0.90
2023-03-11T01:38:11.336Z,0.90
2023-03-11T01:40:44.377Z,0.80
2023-03-11T01:43:41.768Z,0.80
2023-03-11T01:46:17.172Z,0.80
2023-03-11T01:48:48.957Z,0.80
2023-03-11T01:51:29.549Z,0.80
2023-03-11T01:54:00.724Z,0.80
2023-03-11T01:56:31.194Z,0.80
2023-03-11T01:59:00.186Z,0.80
2023-03-11T02:01:29.698Z,0.80
2023-03-11T02:04:00.967Z,0.80
2023-03-11T02:06:30.769Z,0.80
2023-03-11T02:09:00.741Z,0.80
2023-03-11T02:11:32.609Z,0.80
2023-03-11T02:14:05.542Z,0.80
2023-03-11T02:16:34.177Z,0.80
2023-03-11T02:19:17.330Z,0.80
2023-03-11T02:21:46.180Z,0.80
2023-03-11T02:24:20.064Z,0.80
2023-03-11T02:26:56.455Z,0.80
2023-03-11T02:29:27.809Z,0.80
2023-03-11T02:31:58.006Z,0.80
2023-03-11T02:34:28.901Z,0.80
2023-03-11T02:36:59.180Z,0.80
2023-03-11T02:39:32.384Z,0.70
2023-03-11T02:42:06.873Z,0.80
2023-03-11T02:44:35.935Z,0.70
2023-03-11T02:47:04.320Z,0.80
2023-03-11T02:49:33.506Z,0.80
2023-03-11T02:52:01.906Z,0.80
2023-03-11T02:54:31.409Z,0.80
2023-03-11T02:57:00.330Z,0.80
2023-03-11T02:59:30.683Z,0.80
2023-03-11T03:02:01.501Z,0.80
2023-03-11T03:04:30.471Z,0.80
2023-03-11T03:07:00.752Z,0.80
2023-03-11T03:09:29.001Z,0.80
2023-03-11T03:11:57.627Z,0.80
2023-03-11T03:14:26.131Z,0.80
2023-03-11T03:16:55.927Z,0.80
2023-03-11T03:19:24.381Z,0.80
2023-03-11T03:21:53.545Z,0.80
2023-03-11T03:24:23.474Z,0.80
2023-03-11T03:26:52.045Z,0.80
2023-03-11T03:29:20.577Z,0.80
2023-03-11T03:31:50.540Z,0.90
2023-03-11T03:34:20.128Z,0.90
2023-03-11T03:36:48.734Z,0.90
2023-03-11T03:39:20.008Z,0.90
2023-03-11T03:41:50.292Z,0.90
2023-03-11T03:44:18.898Z,0.90
2023-03-11T03:46:48.860Z,0.90
2023-03-11T03:49:17.152Z,0.80
2023-03-11T03:51:47.874Z,0.80
2023-03-11T03:54:26.698Z,0.90
2023-03-11T03:56:55.294Z,0.90
2023-03-11T03:59:23.642Z,0.90
2023-03-11T04:01:56.085Z,0.90
2023-03-11T04:04:25.648Z,0.90
2023-03-11T04:06:56.186Z,0.90
2023-03-11T04:09:25.227Z,0.90
2023-03-11T04:11:53.731Z,0.90
2023-03-11T04:14:22.361Z,0.90
2023-03-11T04:16:57.830Z,0.90
2023-03-11T04:19:26.610Z,0.90
2023-03-11T04:21:56.623Z,0.90
2023-03-11T04:24:26.699Z,0.90
2023-03-11T04:26:55.941Z,0.90
2023-03-11T04:29:24.458Z,0.90
2023-03-11T04:31:54.985Z,0.90
2023-03-11T04:34:23.620Z,0.90
2023-03-11T04:36:53.885Z,0.90
2023-03-11T04:39:26.842Z,0.90
2023-03-11T04:41:56.211Z,0.90
2023-03-11T04:44:27.396Z,0.90
2023-03-11T04:46:56.954Z,0.90
2023-03-11T04:49:25.494Z,0.90
2023-03-11T04:51:54.316Z,0.90
2023-03-11T04:54:26.073Z,0.90
2023-03-11T04:56:55.036Z,0.80
2023-03-11T04:59:24.969Z,0.80
2023-03-11T05:01:54.063Z,0.80
2023-03-11T05:04:23.061Z,0.80
2023-03-11T05:06:52.566Z,0.80
2023-03-11T05:09:22.835Z,0.80
2023-03-11T05:11:52.598Z,0.80
2023-03-11T05:14:22.688Z,0.80
2023-03-11T05:16:52.149Z,0.80
2023-03-11T05:19:34.791Z,0.90
2023-03-11T05:22:09.495Z,0.80
2023-03-11T05:24:38.819Z,0.90
2023-03-11T05:27:08.524Z,0.80
2023-03-11T05:29:38.953Z,0.80
2023-03-11T05:32:10.390Z,0.80
2023-03-11T05:34:39.233Z,0.80
2023-03-11T05:37:08.789Z,0.80
2023-03-11T05:39:38.256Z,0.80
2023-03-11T05:42:09.177Z,0.80
2023-03-11T05:44:38.137Z,0.80
2023-03-11T05:47:06.748Z,0.90
2023-03-11T05:49:35.754Z,0.80
2023-03-11T05:52:04.286Z,0.90
2023-03-11T05:54:34.052Z,0.90
2023-03-11T05:57:02.547Z,0.90
2023-03-11T05:59:35.452Z,0.90
2023-03-11T06:02:06.148Z,0.90
2023-03-11T06:04:34.703Z,0.90
2023-03-11T06:07:04.816Z,1.00
2023-03-11T06:09:37.153Z,1.00
2023-03-11T06:12:08.992Z,1.00
2023-03-11T06:14:52.172Z,1.00
2023-03-11T06:17:20.944Z,0.90
2023-03-11T06:19:49.951Z,0.90
2023-03-11T06:22:18.415Z,0.90
2023-03-11T06:24:47.332Z,0.90
2023-03-11T06:27:16.094Z,0.90
2023-03-11T06:29:44.572Z,0.90
2023-03-11T06:32:15.158Z,0.90
2023-03-11T06:34:43.698Z,0.90
2023-03-11T06:37:12.705Z,0.90
2023-03-11T06:39:42.105Z,0.90
2023-03-11T06:42:14.339Z,1.00
2023-03-11T06:44:44.909Z,1.00
2023-03-11T06:47:15.366Z,1.00
2023-03-11T06:49:44.225Z,1.10
2023-03-11T06:52:12.539Z,1.10
2023-03-11T06:54:41.098Z,1.10
2023-03-11T06:57:10.592Z,1.10
2023-03-11T06:59:40.053Z,1.10
2023-03-11T07:02:14.495Z,1.20
2023-03-11T07:04:45.986Z,1.10
2023-03-11T07:07:14.377Z,1.20
2023-03-11T07:09:42.925Z,1.10
2023-03-11T07:12:15.313Z,1.10
2023-03-11T07:14:44.107Z,1.10
2023-03-11T07:17:12.617Z,1.10
2023-03-11T07:19:52.353Z,1.10
2023-03-11T07:22:20.802Z,1.10
2023-03-11T07:24:50.500Z,1.20
2023-03-11T07:27:18.978Z,1.20
2023-03-11T07:29:47.839Z,1.30
2023-03-11T07:32:16.562Z,1.30
2023-03-11T07:34:45.018Z,1.40
2023-03-11T07:37:15.427Z,1.40
2023-03-11T07:39:43.996Z,1.50
2023-03-11T07:42:12.458Z,1.40
2023-03-11T07:44:41.288Z,1.40
2023-03-11T07:47:09.754Z,1.50
2023-03-11T07:49:42.250Z,1.50
2023-03-11T07:52:10.787Z,1.50
2023-03-11T07:54:40.642Z,1.60
2023-03-11T07:57:13.276Z,1.70
2023-03-11T07:59:42.263Z,1.70
2023-03-11T08:02:11.970Z,1.80
2023-03-11T08:04:40.719Z,1.90
2023-03-11T08:07:09.119Z,1.90
2023-03-11T08:09:37.943Z,1.90
2023-03-11T08:12:08.711Z,2.00
2023-03-11T08:14:37.065Z,2.10
2023-03-11T08:17:05.855Z,2.10
2023-03-11T08:19:34.651Z,2.10
2023-03-11T08:22:04.098Z,2.10
2023-03-11T08:24:32.496Z,2.10
2023-03-11T08:27:00.999Z,2.20
2023-03-11T08:29:31.119Z,2.20
2023-03-11T08:31:59.473Z,2.20
2023-03-11T08:34:27.819Z,2.10
2023-03-11T08:36:56.639Z,2.10
2023-03-11T08:39:25.683Z,2.10
2023-03-11T08:41:54.023Z,2.00
2023-03-11T08:44:22.690Z,2.00
2023-03-11T08:46:52.568Z,2.00
2023-03-11T08:49:21.004Z,1.90
2023-03-11T08:51:49.273Z,1.90
2023-03-11T08:54:17.613Z,2.00
2023-03-11T08:56:47.799Z,2.00
2023-03-11T08:59:16.840Z,2.10
2023-03-11T09:01:45.156Z,2.20
2023-03-11T09:04:15.610Z,2.20
2023-03-11T09:06:45.117Z,2.20
2023-03-11T09:09:14.360Z,2.20
2023-03-11T09:11:42.697Z,2.20
2023-03-11T09:14:11.289Z,2.30
2023-03-11T09:16:39.677Z,2.40
2023-03-11T09:19:08.233Z,2.40
2023-03-11T09:21:38.637Z,2.50
2023-03-11T09:24:10.336Z,2.60
2023-03-11T09:26:38.866Z,2.70
2023-03-11T09:29:07.306Z,2.80
2023-03-11T09:31:35.597Z,2.90
2023-03-11T09:34:04.420Z,3.20
2023-03-11T09:36:33.276Z,3.40
2023-03-11T09:39:03.814Z,3.40
2023-03-11T09:41:55.294Z,3.50
2023-03-11T09:44:30.242Z,3.70
2023-03-11T09:47:19.058Z,3.90
2023-03-11T09:50:15.222Z,4.10
2023-03-11T09:52:56.602Z,4.10
2023-03-11T09:55:34.187Z,4.00
2023-03-11T09:58:08.657Z,3.80
2023-03-11T10:00:37.814Z,3.80
2023-03-11T10:03:14.189Z,3.70
2023-03-11T10:05:45.268Z,3.80
2023-03-11T10:08:31.571Z,4.00
2023-03-11T10:11:12.219Z,4.10
2023-03-11T10:13:48.016Z,4.20
2023-03-11T10:16:26.161Z,4.10
2023-03-11T10:19:03.500Z,4.00
2023-03-11T10:21:43.108Z,4.00
2023-03-11T10:24:24.967Z,4.10
2023-03-11T10:26:59.867Z,4.10
2023-03-11T10:32:21.424Z,4.60
2023-03-11T10:34:55.154Z,4.70
2023-03-11T10:37:33.269Z,4.80
2023-03-11T10:40:24.085Z,4.70
2023-03-11T10:42:57.337Z,4.50
2023-03-11T10:45:27.007Z,4.10
2023-03-11T10:47:57.847Z,4.00
2023-03-11T10:50:26.177Z,4.00
2023-03-11T10:53:07.829Z,4.00
2023-03-11T10:55:46.010Z,4.10
2023-03-11T10:58:17.835Z,4.20
2023-03-11T11:00:47.486Z,4.40
2023-03-11T11:03:24.858Z,4.60
2023-03-11T11:06:02.736Z,4.70
2023-03-11T11:08:31.289Z,4.60
2023-03-11T11:11:01.436Z,4.40
2023-03-11T11:13:33.177Z,4.20
2023-03-11T11:16:04.503Z,4.20
2023-03-11T11:18:35.530Z,4.30
2023-03-11T11:21:07.305Z,4.40
2023-03-11T11:23:41.648Z,4.40
2023-03-11T11:26:19.007Z,4.40
2023-03-11T11:29:08.453Z,4.30
2023-03-11T11:31:38.930Z,4.30
2023-03-11T11:34:28.960Z,4.20
2023-03-11T11:36:59.740Z,4.10
2023-03-11T11:39:30.016Z,3.80
2023-03-11T11:41:59.001Z,3.80
2023-03-11T11:44:34.551Z,3.80
2023-03-11T11:47:10.710Z,4.00
2023-03-11T11:49:45.130Z,4.10
2023-03-11T11:52:16.697Z,4.20
2023-03-11T11:54:52.313Z,4.40
2023-03-11T11:57:23.786Z,4.40
2023-03-11T11:59:54.216Z,4.30
2023-03-11T12:02:41.103Z,4.20
2023-03-11T12:05:14.067Z,4.10
2023-03-11T12:07:58.406Z,4.00
2023-03-11T12:10:30.470Z,4.00
2023-03-11T12:13:31.917Z,4.00
2023-03-11T12:16:06.641Z,4.10
2023-03-11T12:18:41.004Z,4.50
2023-03-11T12:21:23.781Z,4.70
2023-03-11T12:24:05.408Z,4.80
2023-03-11T12:26:37.802Z,4.90
2023-03-11T12:29:14.966Z,5.00
2023-03-11T12:31:47.230Z,4.90
2023-03-11T12:34:19.480Z,4.80
2023-03-11T12:36:49.240Z,4.60
2023-03-11T12:39:23.958Z,4.60
2023-03-11T12:42:17.031Z,4.60
2023-03-11T12:44:47.111Z,4.80
2023-03-11T12:47:22.413Z,4.70
2023-03-11T12:49:55.201Z,4.60
2023-03-11T12:52:26.638Z,4.60
2023-03-11T12:55:38.155Z,4.60
2023-03-11T12:58:33.209Z,4.60
2023-03-11T13:01:24.359Z,4.40
2023-03-11T13:04:02.818Z,4.20
2023-03-11T13:07:07.579Z,4.10
2023-03-11T13:09:36.032Z,4.00
2023-03-11T13:12:04.831Z,4.20
2023-03-11T13:14:34.560Z,4.40
2023-03-11T13:17:25.914Z,4.60
2023-03-11T13:19:57.134Z,4.60
2023-03-11T13:23:16.052Z,4.70
2023-03-11T13:25:45.861Z,4.70
2023-03-11T13:28:32.684Z,4.70
2023-03-11T13:31:23.823Z,4.70
2023-03-11T13:33:54.433Z,4.60
2023-03-11T13:36:43.026Z,4.50
2023-03-11T13:39:44.750Z,4.30
2023-03-11T13:42:23.438Z,4.20
2023-03-11T13:44:52.669Z,4.30
2023-03-11T13:47:22.346Z,4.40
2023-03-11T13:49:55.040Z,4.60
2023-03-11T13:52:31.575Z,4.80
2023-03-11T13:55:04.192Z,4.80
2023-03-11T13:57:34.085Z,4.80
2023-03-11T14:00:17.139Z,5.00
2023-03-11T14:02:51.035Z,5.30
2023-03-11T14:05:23.721Z,5.70
2023-03-11T14:07:53.700Z,5.70
2023-03-11T14:10:25.978Z,5.70
2023-03-11T14:13:06.781Z,5.60
2023-03-11T14:15:45.026Z,5.70
2023-03-11T14:18:32.680Z,5.80
2023-03-11T14:21:01.817Z,5.70
2023-03-11T14:23:35.996Z,5.70
2023-03-11T14:26:08.827Z,5.70
2023-03-11T14:28:45.161Z,5.60
2023-03-11T14:31:25.599Z,5.60
2023-03-11T14:34:04.617Z,5.90
2023-03-11T14:36:44.336Z,5.90
2023-03-11T14:39:31.456Z,6.40
2023-03-11T14:42:13.772Z,6.90
2023-03-11T14:44:44.758Z,7.50
2023-03-11T14:47:19.897Z,7.10
2023-03-11T14:49:50.944Z,7.50
2023-03-11T14:52:22.799Z,7.60
2023-03-11T14:54:55.176Z,7.40
2023-03-11T14:57:37.847Z,7.30
2023-03-11T15:00:14.053Z,7.00
2023-03-11T15:02:47.318Z,6.90
2023-03-11T15:05:22.270Z,6.70
2023-03-11T15:07:58.407Z,6.40
2023-03-11T15:10:28.362Z,5.90
2023-03-11T15:13:07.794Z,5.60
2023-03-11T15:15:36.247Z,5.30
2023-03-11T15:18:04.643Z,5.00
2023-03-11T15:20:35.724Z,4.70
2023-03-11T15:23:06.045Z,4.60
2023-03-11T15:25:38.760Z,4.50
2023-03-11T15:28:24.236Z,4.50
2023-03-11T15:30:53.408Z,4.40
2023-03-11T15:33:24.106Z,4.20
2023-03-11T15:35:52.797Z,4.10
2023-03-11T15:38:25.497Z,4.00
2023-03-11T15:41:01.047Z,3.90
2023-03-11T15:43:32.949Z,3.90
2023-03-11T15:46:04.453Z,3.80
2023-03-11T15:48:32.801Z,3.70
2023-03-11T15:51:02.017Z,3.60
2023-03-11T15:53:31.485Z,3.50
2023-03-11T15:56:11.514Z,3.50
2023-03-11T15:58:40.372Z,3.40
2023-03-11T16:01:08.560Z,3.30
2023-03-11T16:03:38.916Z,3.20
2023-03-11T16:06:08.006Z,3.20
2023-03-11T16:08:36.480Z,3.10
2023-03-11T16:11:07.279Z,3.10
2023-03-11T16:13:35.850Z,3.00
2023-03-11T16:16:04.965Z,2.90
2023-03-11T16:18:35.764Z,2.80
2023-03-11T16:21:10.021Z,2.80
2023-03-11T16:23:51.007Z,2.70
2023-03-11T16:26:23.503Z,2.70
2023-03-11T16:28:52.205Z,2.60
2023-03-11T16:31:20.838Z,2.50
2023-03-11T16:33:49.045Z,2.50
2023-03-11T16:36:17.257Z,2.50
2023-03-11T16:38:49.965Z,2.40
2023-03-11T16:41:18.757Z,2.40
2023-03-11T16:43:48.846Z,2.30
2023-03-11T16:46:17.183Z,2.30
2023-03-11T16:48:45.713Z,2.30
2023-03-11T16:51:13.878Z,2.30
2023-03-11T16:53:42.114Z,2.20
2023-03-11T16:56:10.800Z,2.10
2023-03-11T16:58:39.321Z,2.10
2023-03-11T17:01:08.978Z,2.00
2023-03-11T17:03:42.619Z,2.00
2023-03-11T17:06:11.553Z,1.90
2023-03-11T17:08:39.966Z,1.90
2023-03-11T17:11:15.524Z,1.80
2023-03-11T17:13:44.076Z,1.70
2023-03-11T17:16:15.130Z,1.70
2023-03-11T17:18:43.760Z,1.70
2023-03-11T17:21:14.658Z,1.60
2023-03-11T17:23:44.070Z,1.60
2023-03-11T17:26:14.514Z,1.60
2023-03-11T17:28:43.324Z,1.50
2023-03-11T17:31:17.311Z,1.50
2023-03-11T17:33:46.227Z,1.50
2023-03-11T17:36:16.285Z,1.40
2023-03-11T17:38:45.098Z,1.40
2023-03-11T17:41:15.976Z,1.40
2023-03-11T17:43:45.472Z,1.40
2023-03-11T17:46:16.950Z,1.30
2023-03-11T17:48:47.078Z,1.30
2023-03-11T17:51:18.240Z,1.20
2023-03-11T17:53:48.148Z,1.20
2023-03-11T17:56:18.909Z,1.20
2023-03-11T17:58:47.574Z,1.10
2023-03-11T18:01:19.238Z,1.10
2023-03-11T18:03:47.570Z,1.10
2023-03-11T18:06:16.144Z,1.20
2023-03-11T18:08:44.442Z,1.10
2023-03-11T18:11:18.216Z,1.10
2023-03-11T18:13:47.535Z,1.10
2023-03-11T18:16:19.690Z,1.00
2023-03-11T18:18:48.314Z,1.00
2023-03-11T18:21:19.078Z,1.00
2023-03-11T18:23:47.412Z,1.00
2023-03-11T18:26:18.332Z,1.00
2023-03-11T18:28:46.709Z,1.00
2023-03-11T18:31:17.806Z,1.00
2023-03-11T18:33:49.509Z,1.00
2023-03-11T18:36:19.805Z,1.10
2023-03-11T18:38:48.910Z,1.10
2023-03-11T18:41:17.707Z,1.00
2023-03-11T18:43:46.129Z,1.00
2023-03-11T18:46:17.418Z,1.00
2023-03-11T18:48:46.503Z,0.90
2023-03-11T18:51:15.371Z,0.90
2023-03-11T18:53:43.607Z,0.90
2023-03-11T18:56:14.480Z,0.90
2023-03-11T18:58:42.796Z,0.90
2023-03-11T19:01:13.993Z,0.90
2023-03-11T19:03:45.091Z,0.90
2023-03-11T19:06:14.685Z,0.80
2023-03-11T19:08:43.430Z,0.80
2023-03-11T19:11:14.214Z,0.70
2023-03-11T19:13:49.680Z,0.70
2023-03-11T19:16:20.652Z,0.70
2023-03-11T19:18:50.322Z,0.70
2023-03-11T19:21:19.709Z,0.60
2023-03-11T19:23:49.943Z,0.60
2023-03-11T19:26:18.662Z,0.60
2023-03-11T19:28:46.895Z,0.50
2023-03-11T19:31:15.143Z,0.50
2023-03-11T19:33:45.559Z,0.50
2023-03-11T19:36:15.153Z,0.50
2023-03-11T19:38:43.422Z,0.50
2023-03-11T19:41:14.465Z,0.40
2023-03-11T19:43:43.537Z,0.40
2023-03-11T19:46:15.143Z,0.40
2023-03-11T19:48:43.506Z,0.40
2023-03-11T19:51:12.864Z,0.40
2023-03-11T19:53:42.755Z,0.40
2023-03-11T19:56:12.020Z,0.40
2023-03-11T19:58:42.345Z,0.30
2023-03-11T20:01:17.714Z,0.30
2023-03-11T20:03:45.965Z,0.40
2023-03-11T20:06:16.665Z,0.40
2023-03-11T20:08:46.531Z,0.40
2023-03-11T20:11:15.179Z,0.40
2023-03-11T20:13:44.150Z,0.30
2023-03-11T20:16:15.141Z,0.30
2023-03-11T20:18:45.943Z,0.20
2023-03-11T20:21:14.604Z,0.20
2023-03-11T20:23:43.279Z,0.20
2023-03-11T20:26:16.033Z,0.20
2023-03-11T20:28:44.993Z,0.20
2023-03-11T20:31:16.011Z,0.10
2023-03-11T20:33:45.023Z,0.10
2023-03-11T20:36:15.191Z,0.10
2023-03-11T20:38:44.040Z,0.10
2023-03-11T20:41:13.579Z,0.00
2023-03-11T20:43:42.891Z,0.00
2023-03-11T20:46:11.888Z,-0.10
2023-03-11T20:48:40.800Z,0.00
2023-03-11T20:51:10.787Z,-0.10
2023-03-11T20:53:40.090Z,-0.10
2023-03-11T20:56:10.165Z,0.00
2023-03-11T20:58:40.356Z,0.00
2023-03-11T21:01:12.912Z,-0.10
2023-03-11T21:03:41.827Z,-0.10
2023-03-11T21:06:18.032Z,-0.20
2023-03-11T21:08:47.020Z,-0.20
2023-03-11T21:11:16.054Z,-0.20
2023-03-11T21:13:46.173Z,-0.10
2023-03-11T21:16:14.612Z,-0.10
2023-03-11T21:18:44.349Z,-0.20
2023-03-11T21:21:13.480Z,-0.20
2023-03-11T21:23:44.333Z,-0.20
2023-03-11T21:26:13.633Z,-0.20
2023-03-11T21:28:44.256Z,-0.20
2023-03-11T21:31:16.460Z,-0.30
2023-03-11T21:33:45.854Z,-0.30
2023-03-11T21:36:15.557Z,-0.30
2023-03-11T21:38:43.955Z,-0.30
2023-03-11T21:41:14.082Z,-0.30
2023-03-11T21:43:43.199Z,-0.20
2023-03-11T21:46:14.449Z,-0.20
2023-03-11T21:48:43.153Z,-0.20
2023-03-11T21:51:11.439Z,-0.20
2023-03-11T21:53:40.120Z,-0.20
2023-03-11T21:56:09.959Z,-0.20
2023-03-11T21:58:38.551Z,-0.20
2023-03-11T22:01:07.682Z,-0.20
2023-03-11T22:03:37.877Z,-0.20
2023-03-11T22:06:09.468Z,-0.30
2023-03-11T22:08:38.282Z,-0.30
2023-03-11T22:11:09.673Z,-0.30
2023-03-11T22:13:38.163Z,-0.40
2023-03-11T22:16:08.434Z,-0.40
2023-03-11T22:18:38.227Z,-0.50
2023-03-11T22:21:08.696Z,-0.50
2023-03-11T22:23:38.192Z,-0.60
2023-03-11T22:26:06.830Z,-0.60
2023-03-11T22:28:35.898Z,-0.60
2023-03-11T22:31:08.367Z,-0.60
2023-03-11T22:33:38.652Z,-0.60
2023-03-11T22:36:09.362Z,-0.60
2023-03-11T22:38:41.842Z,-0.60
2023-03-11T22:41:10.287Z,-0.70
2023-03-11T22:43:40.034Z,-0.60
2023-03-11T22:46:09.207Z,-0.60
2023-03-11T22:48:38.966Z,-0.60
2023-03-11T22:51:07.537Z,-0.60
2023-03-11T22:53:35.853Z,-0.60
2023-03-11T22:56:09.105Z,-0.70
2023-03-11T22:58:37.374Z,-0.70
2023-03-11T23:01:06.587Z,-0.60
2023-03-11T23:03:36.024Z,-0.60
2023-03-11T23:06:08.421Z,-0.70
2023-03-11T23:08:37.503Z,-0.70
2023-03-11T23:11:07.579Z,-0.70
2023-03-11T23:13:36.215Z,-0.80
2023-03-11T23:16:07.319Z,-0.80
2023-03-11T23:18:35.962Z,-0.80
2023-03-11T23:21:05.986Z,-0.80
2023-03-11T23:23:34.600Z,-0.80
2023-03-11T23:26:09.052Z,-0.80
2023-03-11T23:28:37.481Z,-0.80
2023-03-11T23:31:06.125Z,-0.80
2023-03-11T23:33:34.538Z,-0.80
2023-03-11T23:36:03.466Z,-0.80
2023-03-11T23:38:33.197Z,-0.80
2023-03-11T23:41:01.402Z,-0.80
2023-03-11T23:43:29.620Z,-0.80
2023-03-11T23:45:57.915Z,-0.80
2023-03-11T23:48:26.211Z,-0.90
2023-03-11T23:50:54.612Z,-0.80
2023-03-11T23:53:23.333Z,-0.90
2023-03-11T23:55:53.387Z,-0.90
2023-03-11T23:58:22.725Z,-0.90
